sensor_id;sensor_type;location;lat;lon;timestamp;temperature;humidity
11246;DHT22;59870;50.106;8.580;2023-05-10T05:16:48;17.70;98.40
11246;DHT22;59870;50.106;8.580;2023-05-10T05:22:55;17.70;98.50
11246;DHT22;59870;50.106;8.580;2023-05-10T05:25:54;17.70;98.40
11246;DHT22;59870;50.106;8.580;2023-05-10T05:28:22;17.80;97.80
11246;DHT22;59870;50.106;8.580;2023-05-10T05:37:14;17.80;98.50
11246;DHT22;59870;50.106;8.580;2023-05-10T05:39:44;17.80;98.50
11246;DHT22;59870;50.106;8.580;2023-05-10T05:42:13;18.20;98.70
11246;DHT22;59870;50.106;8.580;2023-05-10T05:44:43;17.90;98.70
11246;DHT22;59870;50.106;8.580;2023-05-10T05:47:11;18.30;98.60
11246;DHT22;59870;50.106;8.580;2023-05-10T05:49:41;17.90;98.20
11246;DHT22;59870;50.106;8.580;2023-05-10T06:27:21;18.90;98.30
11246;DHT22;59870;50.106;8.580;2023-05-10T06:29:49;19.00;97.80
11246;DHT22;59870;50.106;8.580;2023-05-10T06:32:25;19.60;98.00
11246;DHT22;59870;50.106;8.580;2023-05-10T06:34:53;19.10;97.50
11246;DHT22;59870;50.106;8.580;2023-05-10T06:37:20;19.20;97.50
11246;DHT22;59870;50.106;8.580;2023-05-10T06:39:49;19.30;97.40
11246;DHT22;59870;50.106;8.580;2023-05-10T06:42:17;19.30;97.30
11246;DHT22;59870;50.106;8.580;2023-05-10T06:44:46;19.40;96.80
11246;DHT22;59870;50.106;8.580;2023-05-10T06:47:13;19.50;97.00
11246;DHT22;59870;50.106;8.580;2023-05-10T06:49:41;19.60;97.00
11246;DHT22;59870;50.106;8.580;2023-05-10T08:19:01;21.10;92.80
11246;DHT22;59870;50.106;8.580;2023-05-10T09:05:49;22.10;90.70
11246;DHT22;59870;50.106;8.580;2023-05-10T09:08:17;22.10;91.20
11246;DHT22;59870;50.106;8.580;2023-05-10T09:10:45;22.10;90.90
11246;DHT22;59870;50.106;8.580;2023-05-10T09:13:15;22.30;90.60
11246;DHT22;59870;50.106;8.580;2023-05-10T09:15:44;22.70;91.60
11246;DHT22;59870;50.106;8.580;2023-05-10T09:18:12;22.20;91.20
11246;DHT22;59870;50.106;8.580;2023-05-10T09:20:40;22.60;91.00
11246;DHT22;59870;50.106;8.580;2023-05-10T09:23:08;22.90;91.60
11246;DHT22;59870;50.106;8.580;2023-05-10T09:25:36;22.30;90.40
11246;DHT22;59870;50.106;8.580;2023-05-10T09:28:09;22.60;90.30
11246;DHT22;59870;50.106;8.580;2023-05-10T09:30:36;22.70;90.70
11246;DHT22;59870;50.106;8.580;2023-05-10T09:33:04;22.70;89.40
11246;DHT22;59870;50.106;8.580;2023-05-10T09:35:32;22.50;90.50
11246;DHT22;59870;50.106;8.580;2023-05-10T09:38:03;22.70;90.90
11246;DHT22;59870;50.106;8.580;2023-05-10T09:40:31;23.50;90.20
11246;DHT22;59870;50.106;8.580;2023-05-10T09:43:04;23.70;89.70
11246;DHT22;59870;50.106;8.580;2023-05-10T09:45:36;23.50;86.40
11246;DHT22;59870;50.106;8.580;2023-05-10T09:48:05;23.60;85.80
11246;DHT22;59870;50.106;8.580;2023-05-10T09:50:34;23.70;86.50
11246;DHT22;59870;50.106;8.580;2023-05-10T09:53:02;23.80;86.00
11246;DHT22;59870;50.106;8.580;2023-05-10T09:55:44;23.90;85.30
11246;DHT22;59870;50.106;8.580;2023-05-10T09:58:13;23.90;84.20
11246;DHT22;59870;50.106;8.580;2023-05-10T10:00:43;24.40;83.40
11246;DHT22;59870;50.106;8.580;2023-05-10T10:03:16;23.80;83.50
11246;DHT22;59870;50.106;8.580;2023-05-10T10:05:45;24.20;85.50
11246;DHT22;59870;50.106;8.580;2023-05-10T10:08:14;23.50;86.70
11246;DHT22;59870;50.106;8.580;2023-05-10T10:10:43;24.00;86.90
11246;DHT22;59870;50.106;8.580;2023-05-10T10:13:14;23.40;85.70
11246;DHT22;59870;50.106;8.580;2023-05-10T10:15:43;23.20;86.70
11246;DHT22;59870;50.106;8.580;2023-05-10T10:18:13;23.20;89.00
11246;DHT22;59870;50.106;8.580;2023-05-10T10:20:42;23.10;86.20
11246;DHT22;59870;50.106;8.580;2023-05-10T10:23:09;23.10;87.60
11246;DHT22;59870;50.106;8.580;2023-05-10T10:25:39;23.00;87.60
11246;DHT22;59870;50.106;8.580;2023-05-10T10:28:16;23.50;89.50
11246;DHT22;59870;50.106;8.580;2023-05-10T10:30:50;22.90;88.90
11246;DHT22;59870;50.106;8.580;2023-05-10T10:36:16;22.80;87.70
11246;DHT22;59870;50.106;8.580;2023-05-10T10:41:34;22.60;85.30
11246;DHT22;59870;50.106;8.580;2023-05-10T10:49:37;23.20;88.20
11246;DHT22;59870;50.106;8.580;2023-05-10T10:52:24;22.60;88.40
11246;DHT22;59870;50.106;8.580;2023-05-10T10:55:01;22.60;89.00
11246;DHT22;59870;50.106;8.580;2023-05-10T11:00:38;22.60;89.20
11246;DHT22;59870;50.106;8.580;2023-05-10T11:03:12;22.60;89.00
11246;DHT22;59870;50.106;8.580;2023-05-10T11:05:46;22.70;90.20
11246;DHT22;59870;50.106;8.580;2023-05-10T11:08:16;22.70;89.10
11246;DHT22;59870;50.106;8.580;2023-05-10T11:16:18;22.90;90.30
11246;DHT22;59870;50.106;8.580;2023-05-10T11:19:07;23.30;90.30
11246;DHT22;59870;50.106;8.580;2023-05-10T11:22:11;23.30;90.30
11246;DHT22;59870;50.106;8.580;2023-05-10T11:24:56;23.10;90.60
11246;DHT22;59870;50.106;8.580;2023-05-10T11:27:24;23.70;90.50
11246;DHT22;59870;50.106;8.580;2023-05-10T11:29:52;23.30;89.20
11246;DHT22;59870;50.106;8.580;2023-05-10T11:32:20;23.30;88.70
11246;DHT22;59870;50.106;8.580;2023-05-10T11:34:48;23.30;88.20
11246;DHT22;59870;50.106;8.580;2023-05-10T11:37:17;23.30;88.70
11246;DHT22;59870;50.106;8.580;2023-05-10T11:39:46;23.80;89.30
11246;DHT22;59870;50.106;8.580;2023-05-10T11:42:14;23.80;88.90
11246;DHT22;59870;50.106;8.580;2023-05-10T11:44:42;23.90;88.40
11246;DHT22;59870;50.106;8.580;2023-05-10T11:47:12;23.30;87.80
11246;DHT22;59870;50.106;8.580;2023-05-10T11:49:39;23.90;87.70
11246;DHT22;59870;50.106;8.580;2023-05-10T11:52:10;23.50;89.40
11246;DHT22;59870;50.106;8.580;2023-05-10T11:54:54;23.30;89.10
11246;DHT22;59870;50.106;8.580;2023-05-10T11:57:26;23.70;87.80
11246;DHT22;59870;50.106;8.580;2023-05-10T11:59:54;23.10;86.60
11246;DHT22;59870;50.106;8.580;2023-05-10T12:02:26;23.20;87.80
11246;DHT22;59870;50.106;8.580;2023-05-10T12:04:55;23.20;87.60
11246;DHT22;59870;50.106;8.580;2023-05-10T12:07:23;23.70;86.80
11246;DHT22;59870;50.106;8.580;2023-05-10T12:10:13;23.30;84.80
11246;DHT22;59870;50.106;8.580;2023-05-10T12:12:46;23.50;88.20
11246;DHT22;59870;50.106;8.580;2023-05-10T12:15:22;23.60;83.60
11246;DHT22;59870;50.106;8.580;2023-05-10T12:17:50;23.70;83.90
11246;DHT22;59870;50.106;8.580;2023-05-10T12:20:23;23.80;85.20
11246;DHT22;59870;50.106;8.580;2023-05-10T12:22:56;23.90;80.80
11246;DHT22;59870;50.106;8.580;2023-05-10T12:25:32;24.00;80.00
11246;DHT22;59870;50.106;8.580;2023-05-10T12:28:03;24.00;78.70
11246;DHT22;59870;50.106;8.580;2023-05-10T12:30:33;24.20;82.00
11246;DHT22;59870;50.106;8.580;2023-05-10T12:33:02;24.70;81.40
11246;DHT22;59870;50.106;8.580;2023-05-10T12:35:31;24.40;80.20
11246;DHT22;59870;50.106;8.580;2023-05-10T12:37:58;24.50;79.20
11246;DHT22;59870;50.106;8.580;2023-05-10T12:40:26;24.60;77.10
11246;DHT22;59870;50.106;8.580;2023-05-10T12:42:54;24.70;78.10
11246;DHT22;59870;50.106;8.580;2023-05-10T12:45:21;24.70;76.60
11246;DHT22;59870;50.106;8.580;2023-05-10T12:47:49;24.80;76.20
11246;DHT22;59870;50.106;8.580;2023-05-10T12:50:17;24.90;76.20
11246;DHT22;59870;50.106;8.580;2023-05-10T12:52:44;25.00;74.70
11246;DHT22;59870;50.106;8.580;2023-05-10T12:55:12;25.10;75.90
11246;DHT22;59870;50.106;8.580;2023-05-10T12:57:40;25.10;73.70
11246;DHT22;59870;50.106;8.580;2023-05-10T13:00:08;25.20;71.80
11246;DHT22;59870;50.106;8.580;2023-05-10T13:02:35;25.30;71.80
11246;DHT22;59870;50.106;8.580;2023-05-10T13:05:03;25.30;72.90
11246;DHT22;59870;50.106;8.580;2023-05-10T13:07:31;25.40;72.10
11246;DHT22;59870;50.106;8.580;2023-05-10T13:09:58;25.50;69.80
11246;DHT22;59870;50.106;8.580;2023-05-10T13:12:26;25.40;69.20
11246;DHT22;59870;50.106;8.580;2023-05-10T13:14:53;25.40;67.60
11246;DHT22;59870;50.106;8.580;2023-05-10T13:17:20;25.30;68.10
11246;DHT22;59870;50.106;8.580;2023-05-10T13:19:48;25.20;68.00
11246;DHT22;59870;50.106;8.580;2023-05-10T13:22:15;25.10;69.40
11246;DHT22;59870;50.106;8.580;2023-05-10T13:24:55;25.60;69.80
11246;DHT22;59870;50.106;8.580;2023-05-10T13:27:22;25.30;67.70
11246;DHT22;59870;50.106;8.580;2023-05-10T13:29:50;25.00;67.40
11246;DHT22;59870;50.106;8.580;2023-05-10T13:32:17;24.90;66.20
11246;DHT22;59870;50.106;8.580;2023-05-10T13:34:45;25.10;66.20
11246;DHT22;59870;50.106;8.580;2023-05-10T13:37:12;24.90;67.50
11246;DHT22;59870;50.106;8.580;2023-05-10T13:39:42;24.80;68.00
11246;DHT22;59870;50.106;8.580;2023-05-10T13:42:10;24.80;67.10
11246;DHT22;59870;50.106;8.580;2023-05-10T13:44:37;24.90;68.00
11246;DHT22;59870;50.106;8.580;2023-05-10T13:47:06;24.90;68.30
11246;DHT22;59870;50.106;8.580;2023-05-10T13:49:33;24.90;67.20
11246;DHT22;59870;50.106;8.580;2023-05-10T13:52:01;25.50;69.10
11246;DHT22;59870;50.106;8.580;2023-05-10T13:54:34;25.00;66.30
11246;DHT22;59870;50.106;8.580;2023-05-10T13:57:02;25.60;65.90
11246;DHT22;59870;50.106;8.580;2023-05-10T13:59:30;25.00;64.80
11246;DHT22;59870;50.106;8.580;2023-05-10T14:02:01;25.60;67.10
11246;DHT22;59870;50.106;8.580;2023-05-10T14:04:31;25.10;67.30
11246;DHT22;59870;50.106;8.580;2023-05-10T14:06:59;25.50;68.70
11246;DHT22;59870;50.106;8.580;2023-05-10T14:09:27;25.60;66.30
11246;DHT22;59870;50.106;8.580;2023-05-10T14:11:54;25.10;64.70
11246;DHT22;59870;50.106;8.580;2023-05-10T14:14:23;25.10;64.60
11246;DHT22;59870;50.106;8.580;2023-05-10T14:17:04;25.10;64.40
11246;DHT22;59870;50.106;8.580;2023-05-10T14:20:05;25.20;65.60
11246;DHT22;59870;50.106;8.580;2023-05-10T14:22:35;24.80;65.60
11246;DHT22;59870;50.106;8.580;2023-05-10T14:25:28;25.30;64.30
11246;DHT22;59870;50.106;8.580;2023-05-10T14:27:56;25.30;63.50
11246;DHT22;59870;50.106;8.580;2023-05-10T14:30:24;25.40;63.10
11246;DHT22;59870;50.106;8.580;2023-05-10T14:32:51;25.90;62.70
11246;DHT22;59870;50.106;8.580;2023-05-10T14:35:21;26.00;62.40
11246;DHT22;59870;50.106;8.580;2023-05-10T14:37:49;25.50;63.60
11246;DHT22;59870;50.106;8.580;2023-05-10T14:40:18;25.50;61.60
11246;DHT22;59870;50.106;8.580;2023-05-10T14:42:46;25.50;60.60
11246;DHT22;59870;50.106;8.580;2023-05-10T14:45:13;25.50;60.80
11246;DHT22;59870;50.106;8.580;2023-05-10T14:47:43;25.90;61.60
11246;DHT22;59870;50.106;8.580;2023-05-10T14:50:18;25.60;62.00
11246;DHT22;59870;50.106;8.580;2023-05-10T14:53:05;25.90;61.40
11246;DHT22;59870;50.106;8.580;2023-05-10T14:58:22;25.60;63.00
11246;DHT22;59870;50.106;8.580;2023-05-10T15:01:59;25.90;61.50
11246;DHT22;59870;50.106;8.580;2023-05-10T15:04:27;25.50;60.00
11246;DHT22;59870;50.106;8.580;2023-05-10T15:06:56;25.50;61.50
11246;DHT22;59870;50.106;8.580;2023-05-10T15:09:27;25.60;60.90
11246;DHT22;59870;50.106;8.580;2023-05-10T15:11:56;25.50;62.00
11246;DHT22;59870;50.106;8.580;2023-05-10T15:14:24;25.50;61.10
11246;DHT22;59870;50.106;8.580;2023-05-10T15:16:53;25.50;59.90
11246;DHT22;59870;50.106;8.580;2023-05-10T15:19:20;25.90;62.10
11246;DHT22;59870;50.106;8.580;2023-05-10T15:21:48;25.80;62.80
11246;DHT22;59870;50.106;8.580;2023-05-10T15:24:16;25.30;62.00
11246;DHT22;59870;50.106;8.580;2023-05-10T15:26:43;25.70;62.50
11246;DHT22;59870;50.106;8.580;2023-05-10T15:29:11;25.30;61.70
11246;DHT22;59870;50.106;8.580;2023-05-10T15:31:38;25.70;61.50
11246;DHT22;59870;50.106;8.580;2023-05-10T15:34:06;25.20;61.10
11246;DHT22;59870;50.106;8.580;2023-05-10T15:36:35;25.20;62.60
11246;DHT22;59870;50.106;8.580;2023-05-10T15:39:02;25.40;65.70
11246;DHT22;59870;50.106;8.580;2023-05-10T15:41:34;25.10;63.40
11246;DHT22;59870;50.106;8.580;2023-05-10T15:44:02;25.10;63.00
11246;DHT22;59870;50.106;8.580;2023-05-10T15:46:33;24.90;61.10
11246;DHT22;59870;50.106;8.580;2023-05-10T15:49:01;25.10;61.00
11246;DHT22;59870;50.106;8.580;2023-05-10T15:51:29;25.50;59.50
11246;DHT22;59870;50.106;8.580;2023-05-10T15:53:57;25.30;60.20
11246;DHT22;59870;50.106;8.580;2023-05-10T15:56:34;24.80;60.40
11246;DHT22;59870;50.106;8.580;2023-05-10T15:59:05;25.10;59.80
11246;DHT22;59870;50.106;8.580;2023-05-10T16:01:38;24.70;60.90
11246;DHT22;59870;50.106;8.580;2023-05-10T16:04:07;24.70;60.70
11246;DHT22;59870;50.106;8.580;2023-05-10T16:06:36;24.60;59.50
11246;DHT22;59870;50.106;8.580;2023-05-10T16:09:04;24.90;60.10
11246;DHT22;59870;50.106;8.580;2023-05-10T16:11:34;24.90;62.00
11246;DHT22;59870;50.106;8.580;2023-05-10T16:14:02;24.50;61.40
11246;DHT22;59870;50.106;8.580;2023-05-10T16:16:36;24.70;62.70
11246;DHT22;59870;50.106;8.580;2023-05-10T16:19:05;24.90;62.60
11246;DHT22;59870;50.106;8.580;2023-05-10T16:21:33;24.40;62.40
11246;DHT22;59870;50.106;8.580;2023-05-10T16:24:06;24.40;61.60
11246;DHT22;59870;50.106;8.580;2023-05-10T16:26:38;24.40;62.50
11246;DHT22;59870;50.106;8.580;2023-05-10T16:29:07;24.40;61.40
11246;DHT22;59870;50.106;8.580;2023-05-10T16:31:36;24.40;61.00
11246;DHT22;59870;50.106;8.580;2023-05-10T16:34:04;24.40;61.10
11246;DHT22;59870;50.106;8.580;2023-05-10T16:36:37;24.30;60.90
11246;DHT22;59870;50.106;8.580;2023-05-10T16:39:04;24.70;62.00
11246;DHT22;59870;50.106;8.580;2023-05-10T16:41:33;24.60;61.90
11246;DHT22;59870;50.106;8.580;2023-05-10T16:44:08;24.60;62.80
11246;DHT22;59870;50.106;8.580;2023-05-10T16:46:37;24.40;61.40
11246;DHT22;59870;50.106;8.580;2023-05-10T16:49:06;24.80;63.70
11246;DHT22;59870;50.106;8.580;2023-05-10T16:51:35;24.20;64.20
11246;DHT22;59870;50.106;8.580;2023-05-10T16:54:03;24.20;63.60
11246;DHT22;59870;50.106;8.580;2023-05-10T16:56:30;24.20;62.30
11246;DHT22;59870;50.106;8.580;2023-05-10T16:58:58;24.50;62.70
11246;DHT22;59870;50.106;8.580;2023-05-10T17:01:25;24.10;62.60
11246;DHT22;59870;50.106;8.580;2023-05-10T17:03:53;24.00;62.40
11246;DHT22;59870;50.106;8.580;2023-05-10T17:06:21;24.00;63.80
11246;DHT22;59870;50.106;8.580;2023-05-10T17:08:48;24.40;63.90
11246;DHT22;59870;50.106;8.580;2023-05-10T17:11:15;23.90;61.90
11246;DHT22;59870;50.106;8.580;2023-05-10T17:13:43;23.80;63.80
11246;DHT22;59870;50.106;8.580;2023-05-10T17:16:11;23.80;62.30
11246;DHT22;59870;50.106;8.580;2023-05-10T17:18:39;23.70;61.50
11246;DHT22;59870;50.106;8.580;2023-05-10T17:21:08;23.70;61.40
11246;DHT22;59870;50.106;8.580;2023-05-10T17:23:36;23.70;62.00
11246;DHT22;59870;50.106;8.580;2023-05-10T17:26:05;23.60;61.90
11246;DHT22;59870;50.106;8.580;2023-05-10T17:28:33;23.60;63.20
11246;DHT22;59870;50.106;8.580;2023-05-10T17:31:01;23.50;63.00
11246;DHT22;59870;50.106;8.580;2023-05-10T17:33:29;24.10;63.90
11246;DHT22;59870;50.106;8.580;2023-05-10T17:36:01;24.00;64.50
11246;DHT22;59870;50.106;8.580;2023-05-10T17:38:31;23.40;62.00
11246;DHT22;59870;50.106;8.580;2023-05-10T17:40:58;23.70;62.70
11246;DHT22;59870;50.106;8.580;2023-05-10T17:43:26;23.80;62.40
11246;DHT22;59870;50.106;8.580;2023-05-10T17:45:53;23.80;63.00
11246;DHT22;59870;50.106;8.580;2023-05-10T17:48:21;23.20;62.90
11246;DHT22;59870;50.106;8.580;2023-05-10T17:50:49;23.10;63.10
11246;DHT22;59870;50.106;8.580;2023-05-10T17:53:17;23.00;64.10
11246;DHT22;59870;50.106;8.580;2023-05-10T17:55:45;22.90;66.50
11246;DHT22;59870;50.106;8.580;2023-05-10T17:58:13;22.90;65.50
11246;DHT22;59870;50.106;8.580;2023-05-10T18:00:40;23.50;66.00
11246;DHT22;59870;50.106;8.580;2023-05-10T18:03:09;22.80;66.40
11246;DHT22;59870;50.106;8.580;2023-05-10T18:05:37;22.80;64.10
11246;DHT22;59870;50.106;8.580;2023-05-10T18:08:05;23.00;65.70
11246;DHT22;59870;50.106;8.580;2023-05-10T18:10:36;22.70;68.00
11246;DHT22;59870;50.106;8.580;2023-05-10T18:13:07;23.00;66.30
11246;DHT22;59870;50.106;8.580;2023-05-10T18:15:35;22.70;64.50
11246;DHT22;59870;50.106;8.580;2023-05-10T18:18:03;22.60;64.50
11246;DHT22;59870;50.106;8.580;2023-05-10T18:20:31;22.60;65.10
11246;DHT22;59870;50.106;8.580;2023-05-10T18:22:59;22.70;64.10
11246;DHT22;59870;50.106;8.580;2023-05-10T18:25:27;22.80;64.90
11246;DHT22;59870;50.106;8.580;2023-05-10T18:27:54;22.50;66.40
11246;DHT22;59870;50.106;8.580;2023-05-10T18:30:22;22.90;65.30
11246;DHT22;59870;50.106;8.580;2023-05-10T18:32:50;22.30;65.80
11246;DHT22;59870;50.106;8.580;2023-05-10T18:35:17;22.40;63.80
11246;DHT22;59870;50.106;8.580;2023-05-10T18:37:45;22.30;63.10
11246;DHT22;59870;50.106;8.580;2023-05-10T18:40:12;22.30;63.70
11246;DHT22;59870;50.106;8.580;2023-05-10T18:42:40;22.70;65.90
11246;DHT22;59870;50.106;8.580;2023-05-10T18:45:08;22.70;64.00
11246;DHT22;59870;50.106;8.580;2023-05-10T18:47:36;22.20;63.70
11246;DHT22;59870;50.106;8.580;2023-05-10T18:50:03;22.10;63.40
11246;DHT22;59870;50.106;8.580;2023-05-10T18:52:32;22.10;63.80
11246;DHT22;59870;50.106;8.580;2023-05-10T18:54:59;22.00;63.40
11246;DHT22;59870;50.106;8.580;2023-05-10T18:57:27;22.40;64.30
11246;DHT22;59870;50.106;8.580;2023-05-10T18:59:55;22.20;64.20
11246;DHT22;59870;50.106;8.580;2023-05-10T19:02:22;22.40;64.30
11246;DHT22;59870;50.106;8.580;2023-05-10T19:04:51;21.80;65.10
11246;DHT22;59870;50.106;8.580;2023-05-10T19:07:20;21.70;67.30
11246;DHT22;59870;50.106;8.580;2023-05-10T19:09:48;22.00;67.20
11246;DHT22;59870;50.106;8.580;2023-05-10T19:12:18;21.60;66.40
11246;DHT22;59870;50.106;8.580;2023-05-10T19:14:46;21.50;68.30
11246;DHT22;59870;50.106;8.580;2023-05-10T19:17:14;21.50;68.20
11246;DHT22;59870;50.106;8.580;2023-05-10T19:19:44;21.80;69.20
11246;DHT22;59870;50.106;8.580;2023-05-10T19:22:13;21.30;68.70
11246;DHT22;59870;50.106;8.580;2023-05-10T19:24:40;21.30;70.60
11246;DHT22;59870;50.106;8.580;2023-05-10T19:27:08;21.30;70.10
11246;DHT22;59870;50.106;8.580;2023-05-10T19:29:36;21.20;71.80
11246;DHT22;59870;50.106;8.580;2023-05-10T19:32:04;21.40;72.40
11246;DHT22;59870;50.106;8.580;2023-05-10T19:34:32;21.10;70.40
11246;DHT22;59870;50.106;8.580;2023-05-10T19:36:59;21.40;71.80
11246;DHT22;59870;50.106;8.580;2023-05-10T19:39:27;21.00;71.80
11246;DHT22;59870;50.106;8.580;2023-05-10T19:42:01;21.30;72.90
11246;DHT22;59870;50.106;8.580;2023-05-10T19:44:28;20.30;71.40
11246;DHT22;59870;50.106;8.580;2023-05-10T19:46:56;21.20;73.40
11246;DHT22;59870;50.106;8.580;2023-05-10T19:49:24;20.70;73.00
11246;DHT22;59870;50.106;8.580;2023-05-10T19:51:51;20.90;72.20
11246;DHT22;59870;50.106;8.580;2023-05-10T19:54:20;21.00;73.80
11246;DHT22;59870;50.106;8.580;2023-05-10T19:56:48;20.50;73.90
